createdAt,value
2022-08-01T00:04:31.359Z,25.65
2022-08-01T00:09:33.134Z,27.77
2022-08-01T00:14:34.662Z,31.80
2022-08-01T00:19:36.174Z,29.63
2022-08-01T00:24:37.706Z,29.52
2022-08-01T00:30:12.816Z,33.17
2022-08-01T00:35:00.779Z,32.95
2022-08-01T00:40:02.326Z,32.85
2022-08-01T00:45:04.276Z,31.30
2022-08-01T00:50:06.611Z,29.75
2022-08-01T00:55:09.971Z,28.58
2022-08-01T01:00:16.686Z,28.73
2022-08-01T01:05:18.390Z,28.15
2022-08-01T01:10:52.968Z,33.70
2022-08-01T01:16:07.299Z,26.27
2022-08-01T01:21:24.773Z,28.83
2022-08-01T01:26:38.073Z,25.13
2022-08-01T01:32:07.713Z,26.63
2022-08-01T01:37:15.023Z,23.98
2022-08-01T01:42:18.283Z,24.98
2022-08-01T01:47:21.162Z,23.90
2022-08-01T01:52:25.271Z,21.95
2022-08-01T02:02:33.955Z,21.88
2022-08-01T02:07:37.074Z,19.70
2022-08-01T02:12:41.444Z,19.25
2022-08-01T02:17:46.407Z,20.00
2022-08-01T02:22:53.342Z,17.52
2022-08-01T02:28:06.720Z,21.67
2022-08-01T02:33:18.677Z,19.27
2022-08-01T02:38:24.450Z,16.55
2022-08-01T02:43:29.449Z,17.75
2022-08-01T02:48:35.314Z,15.05
2022-08-01T02:53:44.713Z,12.65
2022-08-01T02:58:48.035Z,13.20
2022-08-01T03:03:49.622Z,12.93
2022-08-01T03:08:52.471Z,9.35
2022-08-01T03:13:56.146Z,9.82
2022-08-01T03:18:59.492Z,13.13
2022-08-01T03:24:02.392Z,13.00
2022-08-01T03:29:07.433Z,10.43
2022-08-01T03:34:09.652Z,10.05
2022-08-01T03:39:13.168Z,8.85
2022-08-01T03:44:17.224Z,7.97
2022-08-01T03:49:23.697Z,9.82
2022-08-01T03:54:28.998Z,7.93
2022-08-01T03:59:32.116Z,5.53
2022-08-01T04:04:34.085Z,11.55
2022-08-01T04:09:35.650Z,9.25
2022-08-01T04:14:37.180Z,9.98
2022-08-01T04:19:41.535Z,6.50
2022-08-01T04:24:54.685Z,7.63
2022-08-01T04:30:00.188Z,9.07
2022-08-01T04:35:05.879Z,15.65
2022-08-01T04:40:27.218Z,9.63
2022-08-01T04:45:29.575Z,8.02
2022-08-01T04:50:32.806Z,13.95
2022-08-01T04:55:34.393Z,7.80
2022-08-01T05:00:38.187Z,10.23
2022-08-01T05:05:39.855Z,9.10
2022-08-01T05:10:41.364Z,10.25
2022-08-01T05:15:43.060Z,15.77
2022-08-01T05:20:45.162Z,10.10
2022-08-01T05:25:56.593Z,8.85
2022-08-01T05:30:59.733Z,9.50
2022-08-01T05:36:01.357Z,6.57
2022-08-01T05:41:03.241Z,7.63
2022-08-01T05:46:04.774Z,14.45
2022-08-01T05:51:06.353Z,5.75
2022-08-01T05:56:08.039Z,8.38
2022-08-01T06:01:09.647Z,7.50
2022-08-01T06:06:11.258Z,10.75
2022-08-01T06:11:13.348Z,10.88
2022-08-01T06:16:15.064Z,14.27
2022-08-01T06:21:16.718Z,10.15
2022-08-01T06:26:19.622Z,10.65
2022-08-01T06:31:21.195Z,12.95
2022-08-01T06:36:22.723Z,12.45
2022-08-01T06:41:24.520Z,16.42
2022-08-01T06:46:30.487Z,15.32
2022-08-01T06:51:34.065Z,20.50
2022-08-01T06:56:36.223Z,14.07
2022-08-01T07:01:37.966Z,15.10
2022-08-01T07:06:39.570Z,12.15
2022-08-01T07:11:41.102Z,8.20
2022-08-01T07:16:42.731Z,12.00
2022-08-01T07:21:45.233Z,9.60
2022-08-01T07:26:53.184Z,11.40
2022-08-01T07:31:57.523Z,14.27
2022-08-01T07:36:59.077Z,14.18
2022-08-01T07:42:07.126Z,12.13
2022-08-01T07:47:09.832Z,12.38
2022-08-01T07:52:11.420Z,13.05
2022-08-01T07:57:13.071Z,15.50
2022-08-01T08:02:14.711Z,18.40
2022-08-01T08:07:16.727Z,11.07
2022-08-01T08:12:18.278Z,11.80
2022-08-01T08:22:23.836Z,10.93
2022-08-01T08:27:25.367Z,7.43
2022-08-01T08:32:27.494Z,7.85
2022-08-01T08:37:30.695Z,14.55
2022-08-01T08:42:41.843Z,6.95
2022-08-01T08:47:44.857Z,8.13
2022-08-01T08:52:49.096Z,10.07
2022-08-01T08:57:51.956Z,9.35
2022-08-01T09:02:56.501Z,9.40
2022-08-01T09:07:58.257Z,11.80
2022-08-01T09:13:15.907Z,11.50
2022-08-01T09:18:37.040Z,12.18
2022-08-01T09:23:53.315Z,9.32
2022-08-01T09:28:56.094Z,8.93
2022-08-01T09:34:01.739Z,11.55
2022-08-01T09:39:15.761Z,8.73
2022-08-01T09:44:19.486Z,6.93
2022-08-01T09:49:49.860Z,7.85
2022-08-01T09:54:57.393Z,11.60
2022-08-01T10:00:01.952Z,7.95
2022-08-01T10:05:09.305Z,7.35
2022-08-01T10:10:16.201Z,10.13
2022-08-01T10:15:18.958Z,6.38
2022-08-01T10:20:30.248Z,10.48
2022-08-01T10:25:42.759Z,8.85
2022-08-01T10:30:45.646Z,7.22
2022-08-01T10:35:48.392Z,6.43
2022-08-01T10:40:50.661Z,7.15
2022-08-01T10:45:52.890Z,12.63
2022-08-01T10:51:01.210Z,6.00
2022-08-01T10:56:04.147Z,14.80
2022-08-01T11:01:27.755Z,8.33
2022-08-01T11:06:41.568Z,5.97
2022-08-01T11:12:01.108Z,8.48
2022-08-01T11:17:37.193Z,19.33
2022-08-01T11:23:06.017Z,9.50
2022-08-01T11:28:15.425Z,6.22
2022-08-01T11:33:19.402Z,10.07
2022-08-01T11:38:31.048Z,5.25
2022-08-01T11:43:33.241Z,9.45
2022-08-01T11:48:34.912Z,4.97
2022-08-01T11:53:46.175Z,4.13
2022-08-01T11:58:47.934Z,12.38
2022-08-01T12:03:56.877Z,8.07
2022-08-01T12:09:19.551Z,5.13
2022-08-01T12:14:21.903Z,3.60
2022-08-01T12:19:25.285Z,7.57
2022-08-01T12:29:42.515Z,3.38
2022-08-01T12:34:44.127Z,8.02
2022-08-01T12:39:46.831Z,6.35
2022-08-01T12:44:52.253Z,10.97
2022-08-01T12:49:53.937Z,13.25
2022-08-01T12:55:13.104Z,6.00
2022-08-01T13:00:16.339Z,5.65
2022-08-01T13:05:18.387Z,4.28
2022-08-01T13:10:31.227Z,5.78
2022-08-01T13:15:36.079Z,5.47
2022-08-01T13:20:43.589Z,6.38
2022-08-01T13:25:55.429Z,7.63
2022-08-01T13:31:06.878Z,8.70
2022-08-01T13:36:08.637Z,6.22
2022-08-01T13:41:10.348Z,7.05
2022-08-01T13:46:11.927Z,5.40
2022-08-01T13:51:22.185Z,7.65
2022-08-01T13:56:24.792Z,6.20
2022-08-01T14:01:29.845Z,4.63
2022-08-01T14:06:34.423Z,5.43
2022-08-01T14:11:37.419Z,4.47
2022-08-01T14:16:40.383Z,5.20
2022-08-01T14:21:42.242Z,5.10
2022-08-01T14:26:43.894Z,6.82
2022-08-01T14:31:45.459Z,6.25
2022-08-01T14:36:47.199Z,5.90
2022-08-01T14:41:51.120Z,6.60
2022-08-01T14:46:57.767Z,5.95
2022-08-01T14:52:01.583Z,6.22
2022-08-01T14:57:03.183Z,6.80
2022-08-01T15:02:05.229Z,9.02
2022-08-01T15:07:07.004Z,6.80
2022-08-01T15:12:09.745Z,8.27
2022-08-01T15:17:11.501Z,12.63
2022-08-01T15:22:13.328Z,8.07
2022-08-01T15:27:15.073Z,9.63
2022-08-01T15:32:17.138Z,8.00
2022-08-01T15:37:18.834Z,5.45
2022-08-01T15:42:25.653Z,5.28
2022-08-01T15:47:28.694Z,12.18
2022-08-01T15:52:31.823Z,8.10
2022-08-01T15:57:33.570Z,7.53
2022-08-01T16:02:35.087Z,6.97
2022-08-01T16:07:36.784Z,6.38
2022-08-01T16:12:58.343Z,5.68
2022-08-01T16:18:08.986Z,7.63
2022-08-01T16:23:10.621Z,6.93
2022-08-01T16:28:12.429Z,5.40
2022-08-01T16:33:18.605Z,7.00
2022-08-01T16:38:35.702Z,6.13
2022-08-01T16:43:37.567Z,11.35
2022-08-01T16:48:47.739Z,6.22
2022-08-01T16:53:49.640Z,6.25
2022-08-01T16:58:51.251Z,8.52
2022-08-01T17:03:55.854Z,8.25
2022-08-01T17:09:01.088Z,6.97
2022-08-01T17:14:03.078Z,9.68
2022-08-01T17:19:05.243Z,12.40
2022-08-01T17:24:06.901Z,4.65
2022-08-01T17:29:08.423Z,9.68
2022-08-01T17:34:09.938Z,4.70
2022-08-01T17:39:13.443Z,8.50
2022-08-01T17:44:14.956Z,8.95
2022-08-01T17:49:28.572Z,9.70
2022-08-01T17:54:38.106Z,7.38
2022-08-01T17:59:39.891Z,9.80
2022-08-01T18:04:44.197Z,8.05
2022-08-01T18:09:46.408Z,7.88
2022-08-01T18:14:47.956Z,8.50
2022-08-01T18:19:50.898Z,5.20
2022-08-01T18:24:52.570Z,10.05
2022-08-01T18:29:54.095Z,12.98
2022-08-01T18:34:55.753Z,7.93
2022-08-01T18:39:57.339Z,7.97
2022-08-01T18:44:58.914Z,13.02
2022-08-01T18:50:00.516Z,11.68
2022-08-01T18:55:02.137Z,9.20
2022-08-01T19:00:04.841Z,7.55
2022-08-01T19:05:06.835Z,8.43
2022-08-01T19:10:09.395Z,7.38
2022-08-01T19:15:11.101Z,6.80
2022-08-01T19:20:13.650Z,12.13
2022-08-01T19:25:15.604Z,4.68
2022-08-01T19:30:18.351Z,10.77
2022-08-01T19:35:20.063Z,10.68
2022-08-01T19:40:26.866Z,12.70
2022-08-01T19:45:29.856Z,6.90
2022-08-01T19:50:32.655Z,6.85
2022-08-01T19:55:39.648Z,13.02
2022-08-01T20:00:42.839Z,8.15
2022-08-01T20:05:44.617Z,7.70
2022-08-01T20:10:48.399Z,8.20
2022-08-01T20:15:52.187Z,9.70
2022-08-01T20:20:54.716Z,7.32
2022-08-01T20:26:00.959Z,6.40
2022-08-01T20:31:05.687Z,10.63
2022-08-01T20:36:12.266Z,7.78
2022-08-01T20:41:28.232Z,8.45
2022-08-01T20:46:30.146Z,9.38
2022-08-01T20:51:31.927Z,6.68
2022-08-01T20:56:56.941Z,7.75
2022-08-01T21:02:04.240Z,8.15
2022-08-01T21:07:09.010Z,8.20
2022-08-01T21:12:20.654Z,7.45
2022-08-01T21:17:34.050Z,8.35
2022-08-01T21:22:55.965Z,5.72
2022-08-01T21:28:00.042Z,9.52
2022-08-01T21:33:04.091Z,8.68
2022-08-01T21:38:05.818Z,6.35
2022-08-01T21:43:08.634Z,10.60
2022-08-01T21:48:13.835Z,5.22
2022-08-01T21:53:15.324Z,12.23
2022-08-01T21:58:48.766Z,6.43
2022-08-01T22:03:55.878Z,4.57
2022-08-01T22:09:05.831Z,12.00
2022-08-01T22:14:09.703Z,9.82
2022-08-01T22:19:32.450Z,7.18
2022-08-01T22:24:33.300Z,12.70
2022-08-01T22:29:35.020Z,9.98
2022-08-01T22:34:37.417Z,8.98
2022-08-01T22:39:38.942Z,8.65
2022-08-01T22:45:09.434Z,4.28
2022-08-01T22:50:19.309Z,5.72
2022-08-01T22:55:58.967Z,6.72
2022-08-01T23:01:02.328Z,6.00
2022-08-01T23:06:13.636Z,5.35
2022-08-01T23:11:15.296Z,6.30
2022-08-01T23:16:17.756Z,6.75
2022-08-01T23:21:19.798Z,7.78
2022-08-01T23:26:22.455Z,7.57
2022-08-01T23:32:00.788Z,7.32
2022-08-01T23:36:47.444Z,7.22
2022-08-01T23:41:57.866Z,6.30
2022-08-01T23:47:09.801Z,7.03
2022-08-01T23:52:20.814Z,4.25
2022-08-01T23:57:23.373Z,10.10
